Redwood City, CA (94065)

9:32 PM PDT on July 24, 2016 (GMT -0700)
Neighborhood 4 | | Change Station

Elev 7 ft 37.55 °N, 122.26 °W | Updated 9 seconds ago

Clear
Clear
59.8 °F
Feels Like 59.8 °F
N
1.0
Wind Variable Wind from West
Gusts 1.0 mph

Today
High -- | Low -- °F
--% Chance of Precip.
Yesterday
High -- | Low -- °F
Precip. -- in
Pressure 29.90 in
Visibility 10.0 miles
Clouds Clear
Dew Point 51 °F
Humidity 73%
Rainfall 0.00 in
Snow Depth Not available.
6:07 AM 8:23 PM
Waning Gibbous, 70% visible
METAR KSQL 250415Z AUTO 32006KT 10SM CLR 17/10 A2990 RMK AO2
Pressure 29.90 in
Visibility 10.0 miles
Clouds Clear
Dew Point 51 °F
Humidity 73%
Rainfall 0.00 in
Snow Depth Not available.
6:07 AM 8:23 PM
Waning Gibbous, 70% visible
METAR KSQL 250415Z AUTO 32006KT 10SM CLR 17/10 A2990 RMK AO2

10-Day Weather Forecast

Almanac

Astronomy

Jul. 24, 2016 Rise Set
Actual Time
Civil Twilight
Nautical Twilight
Astronomical Twilight
Moon
Length of Visible Light
Length of Day
Tomorrow will be .
, % of the Moon is Illuminated

Today's Extremes

State Highs State Lows

Community

WunderPhotos

Upload Photos

1,927,263 photos uploaded!

WunderBlog® & News

Nearby

Air Quality

  Air Quality AQ Index Pollutant
Not available.

Snow Depth

Station Depth Elevation

Earthquake Activity

City Distance Mag. Time & Date
Minimum magnitude displayed is 2.5.

Coastal Water Temperatures

Place Temperature

Stations

Nearby Weather Stations

Station Location Temp. Windchill Dew Point Humidity Wind Precip. Elev Updated Type
                   

Watches & Warnings

There are currently no watches in effect.